Map

Track Data

SID SEASON NUMBER BASIN SUBBASIN NAME ISO_TIME NATURE LAT LON WMO_WIND WMO_PRES WMO_AGENCY TRACK_TYPE DIST2LAND LANDFALL IFLAG USA_AGENCY USA_ATCF_ID USA_LAT USA_LON USA_RECORD USA_STATUS USA_WIND USA_PRES USA_SSHS USA_R34_NE USA_R34_SE USA_R34_SW USA_R34_NW USA_R50_NE USA_R50_SE USA_R50_SW USA_R50_NW USA_R64_NE USA_R64_SE USA_R64_SW USA_R64_NW USA_POCI USA_ROCI USA_RMW USA_EYE TOKYO_LAT TOKYO_LON TOKYO_GRADE TOKYO_WIND TOKYO_PRES TOKYO_R50_DIR TOKYO_R50_LONG TOKYO_R50_SHORT TOKYO_R30_DIR TOKYO_R30_LONG TOKYO_R30_SHORT TOKYO_LAND CMA_LAT CMA_LON CMA_CAT CMA_WIND CMA_PRES HKO_LAT HKO_LON HKO_CAT HKO_WIND HKO_PRES NEWDELHI_LAT NEWDELHI_LON NEWDELHI_GRADE NEWDELHI_WIND NEWDELHI_PRES NEWDELHI_CI NEWDELHI_DP NEWDELHI_POCI REUNION_LAT REUNION_LON REUNION_TYPE REUNION_WIND REUNION_PRES REUNION_TNUM REUNION_CI REUNION_RMW REUNION_R34_NE REUNION_R34_SE REUNION_R34_SW REUNION_R34_NW REUNION_R50_NE REUNION_R50_SE REUNION_R50_SW REUNION_R50_NW REUNION_R64_NE REUNION_R64_SE REUNION_R64_SW REUNION_R64_NW BOM_LAT BOM_LON BOM_TYPE BOM_WIND BOM_PRES BOM_TNUM BOM_CI BOM_RMW BOM_R34_NE BOM_R34_SE BOM_R34_SW BOM_R34_NW BOM_R50_NE BOM_R50_SE BOM_R50_SW BOM_R50_NW BOM_R64_NE BOM_R64_SE BOM_R64_SW BOM_R64_NW BOM_ROCI BOM_POCI BOM_EYE BOM_POS_METHOD BOM_PRES_METHOD NADI_LAT NADI_LON NADI_CAT NADI_WIND NADI_PRES WELLINGTON_LAT WELLINGTON_LON WELLINGTON_WIND WELLINGTON_PRES DS824_LAT DS824_LON DS824_STAGE DS824_WIND DS824_PRES TD9636_LAT TD9636_LON TD9636_STAGE TD9636_WIND TD9636_PRES TD9635_LAT TD9635_LON TD9635_WIND TD9635_PRES TD9635_ROCI NEUMANN_LAT NEUMANN_LON NEUMANN_CLASS NEUMANN_WIND NEUMANN_PRES MLC_LAT MLC_LON MLC_CLASS MLC_WIND MLC_PRES USA_GUST BOM_GUST BOM_GUST_PER REUNION_GUST REUNION_GUST_PER USA_SEAHGT USA_SEARAD_NE USA_SEARAD_SE USA_SEARAD_SW USA_SEARAD_NW STORM_SPEED STORM_DIR
1945250N12128 1945 57 WP MM URSULA 1945-09-07 09:00:00 NR 12.4000 128.000 main 272 272 __________O___ -1 12.4000 128.000 1 25 37 41
1945250N12128 1945 57 WP MM URSULA 1945-09-07 12:00:00 TS 13.7988 129.239 main 439 425 O________OPO__ jtwc_wp WP171945 14.5000 130.500 25 -1 14.5000 130.500 TC 25 12.7471 127.347 1 26 14.5000 130.500 25 1000 180 19 26
1945250N12128 1945 57 WP MM URSULA 1945-09-07 15:00:00 TS 14.1017 128.853 main 425 392 P________PPP__ WP171945 14.6052 129.913 27 -1 14.6052 129.913 TC 27 13.0946 126.735 1 27 14.6052 129.913 27 999 180 10 301
1945250N12128 1945 57 WP MM URSULA 1945-09-07 18:00:00 TS 14.3137 128.348 main 383 373 O________OPO__ jtwc_wp WP171945 14.7000 129.300 30 -1 14.7000 129.300 TC 30 13.4447 126.205 1 28 14.7000 129.300 30 999 180 10 297
1945250N12128 1945 57 WP MM URSULA 1945-09-07 21:00:00 TS 14.5481 127.937 main 365 338 P________POP__ WP171945 14.7974 128.650 30 -1 14.7974 128.650 TC 30 13.8000 125.800 1 30 14.7974 128.650 30 998 180 10 297
1945250N12128 1945 57 WP MM URSULA 1945-09-08 00:00:00 TS 14.7903 127.387 main 338 300 O________OPO__ jtwc_wp WP171945 15.0000 128.000 30 -1 15.0000 128.000 TC 30 14.1614 125.548 1 32 15.0000 128.000 30 998 180 12 301
1945250N12128 1945 57 WP MM URSULA 1945-09-08 03:00:00 TS 15.1729 126.876 main 306 288 P________PPP__ WP171945 15.3900 127.363 32 -1 15.3900 127.363 TC 32 14.5216 125.414 1 35 15.3900 127.363 32 996 240 13 313
1945250N12128 1945 57 WP MM URSULA 1945-09-08 06:00:00 TS 15.6428 126.437 main 287 287 O________OPO__ jtwc_wp WP171945 15.9000 126.800 35 0 15.9000 126.800 TC 35 14.8710 125.348 1 37 15.9000 126.800 35 995 300 12 322
1945250N12128 1945 57 WP MM URSULA 1945-09-08 09:00:00 TS 16.1486 126.086 main 304 304 P________POP__ WP171945 16.4648 126.348 37 0 16.4648 126.348 TC 37 15.2000 125.300 2 40 16.4648 126.348 37 993 270 12 328
1945250N12128 1945 57 WP MM URSULA 1945-09-08 12:00:00 TS 16.6201 125.800 main 332 329 O________OPO__ jtwc_wp WP171945 17.0000 126.000 40 0 17.0000 126.000 TC 40 15.4802 125.201 2 42 17.0000 126.000 40 992 240 10 329
1945250N12128 1945 57 WP MM URSULA 1945-09-08 15:00:00 TS 16.9649 125.572 main 329 309 P________PPP__ WP171945 17.3724 125.727 42 0 17.3724 125.727 TC 42 15.7424 125.107 2 45 17.3724 125.727 42 990 240 8 328
1945250N12128 1945 57 WP MM URSULA 1945-09-08 18:00:00 TS 17.2771 125.377 main 310 292 O________OPO__ jtwc_wp WP171945 17.7000 125.500 45 0 17.7000 125.500 TC 45 16.0084 125.010 2 47 17.7000 125.500 45 989 240 8 331
1945250N12128 1945 57 WP MM URSULA 1945-09-08 21:00:00 TS 17.6725 125.163 main 297 283 P________POP__ WP171945 18.1300 125.250 47 0 18.1300 125.250 TC 47 16.3000 124.900 2 50 18.1300 125.250 47 987 240 9 332
1945250N12128 1945 57 WP MM URSULA 1945-09-09 00:00:00 TS 18.0345 124.945 main 276 253 O________OPO__ jtwc_wp WP171945 18.5000 125.000 50 0 18.5000 125.000 TC 50 16.6381 124.780 2 52 18.5000 125.000 50 986 240 7 325
1945250N12128 1945 57 WP MM URSULA 1945-09-09 03:00:00 TS 18.2724 124.723 main 253 232 P________PPP__ WP171945 18.6950 124.750 52 0 18.6950 124.750 TC 52 17.0049 124.645 2 55 18.6950 124.750 52 984 270 6 314
1945250N12128 1945 57 WP MM URSULA 1945-09-09 06:00:00 TS 18.4486 124.497 main 232 211 O________OPO__ jtwc_wp WP171945 18.8000 124.500 55 0 18.8000 124.500 TC 55 17.3943 124.486 2 57 18.8000 124.500 55 983 300 5 306
1945250N12128 1945 57 WP MM URSULA 1945-09-09 09:00:00 TS 18.5856 124.268 main 212 184 P________POP__ WP171945 18.8474 124.257 57 0 18.8474 124.257 TC 57 17.8000 124.300 2 60 18.8474 124.257 57 981 300 6 308
1945250N12128 1945 57 WP MM URSULA 1945-09-09 12:00:00 TS 18.7986 124.023 main 184 171 O________OPO__ jtwc_wp WP171945 19.0000 124.000 60 0 19.0000 124.000 TC 60 18.1943 124.091 2 61 19.0000 124.000 60 980 300 8 322
1945250N12128 1945 57 WP MM URSULA 1945-09-09 15:00:00 TS 19.2313 123.733 main 172 172 P________PPP__ WP171945 19.4401 123.693 62 0 19.4401 123.693 TC 62 18.6049 123.852 2 62 19.4401 123.693 62 979 270 11 330
1945250N12128 1945 57 WP MM URSULA 1945-09-09 18:00:00 TS 19.7595 123.447 main 194 194 O________OPO__ jtwc_wp WP171945 20.0000 123.400 65 1 20.0000 123.400 TC 65 19.0380 123.587 2 63 20.0000 123.400 65 978 240 12 335
1945250N12128 1945 57 WP MM URSULA 1945-09-09 21:00:00 TS 20.2780 123.219 main 232 232 P________POP__ WP171945 20.5374 123.192 67 1 20.5374 123.192 TC 67 19.5000 123.300 3 65 20.5374 123.192 67 976 240 11 337
1945250N12128 1945 57 WP MM URSULA 1945-09-10 00:00:00 TS 20.7511 122.997 main 249 206 O________OPO__ jtwc_wp WP171945 21.0000 123.000 70 1 21.0000 123.000 TC 70 20.0045 122.989 3 71 21.0000 123.000 70 975 240 9 331
1945250N12128 1945 57 WP MM URSULA 1945-09-10 03:00:00 TS 21.0994 122.732 main 206 174 P________PPP__ WP171945 21.2875 122.757 77 1 21.2875 122.757 TC 77 20.5352 122.658 3 77 21.2875 122.757 77 971 210 8 322
1945250N12128 1945 57 WP MM URSULA 1945-09-10 06:00:00 TS 21.3933 122.456 main 174 136 O________OPO__ jtwc_wp WP171945 21.5000 122.500 85 2 21.5000 122.500 TC 85 21.0732 122.323 3 83 21.5000 122.500 85 968 180 8 320
1945250N12128 1945 57 WP MM URSULA 1945-09-10 09:00:00 TS 21.6955 122.199 main 136 103 P________POP__ WP171945 21.7274 122.265 87 2 21.7274 122.265 TC 87 21.6000 122.000 4 90 21.7274 122.265 87 969 210 8 322
1945250N12128 1945 57 WP MM URSULA 1945-09-10 12:00:00 TS 22.0274 121.926 main 103 65 O________OPO__ jtwc_wp WP171945 22.0000 122.000 90 2 22.0000 122.000 TC 90 22.1095 121.702 4 78 22.0000 122.000 90 971 240 9 322
1945250N12128 1945 57 WP MM URSULA 1945-09-10 15:00:00 TS 22.4394 121.581 main 65 15 P________PPP__ WP171945 22.3852 121.635 80 1 22.3852 121.635 TC 80 22.6022 121.420 4 67 22.3852 121.635 80 976 270 10 324
1945250N12128 1945 57 WP MM URSULA 1945-09-10 18:00:00 TS 22.8672 121.263 main 10 0 O________OPO__ jtwc_wp WP171945 22.8000 121.300 70 1 22.8000 121.300 TC 70 23.0689 121.152 4 56 22.8000 121.300 70 982 300 9 330
1945250N12128 1945 57 WP MM URSULA 1945-09-10 21:00:00 TS 23.2430 121.076 main 0 0 P________POP__ WP171945 23.1573 121.135 57 0 23.1573 121.135 TC 57 23.5000 120.900 2 45 23.1573 121.135 57 985 300 8 337
1945250N12128 1945 57 WP MM URSULA 1945-09-11 00:00:00 TS 23.5984 120.920 main 0 0 O________OPO__ jtwc_wp WP171945 23.5000 121.000 45 0 23.5000 121.000 TC 45 23.8936 120.680 2 47 23.5000 121.000 45 989 300 8 333
1945250N12128 1945 57 WP MM URSULA 1945-09-11 03:00:00 TS 23.9448 120.691 main 0 0 P________PPP__ WP171945 23.8425 120.765 47 0 23.8425 120.765 TC 47 24.2518 120.471 2 50 23.8425 120.765 47 991 300 8 328
1945250N12128 1945 57 WP MM URSULA 1945-09-11 06:00:00 TS 24.2960 120.438 main 15 15 O________OPO__ jtwc_wp WP171945 24.2000 120.500 50 0 24.2000 120.500 TC 50 24.5841 120.252 2 52 24.2000 120.500 50 993 300 8 328
1945250N12128 1945 57 WP MM URSULA 1945-09-11 09:00:00 TS 24.6580 120.204 main 51 45 P________POP__ WP171945 24.5773 120.272 52 0 24.5773 120.272 TC 52 24.9000 120.000 2 55 24.5773 120.272 52 994 300 9 327
1945250N12128 1945 57 WP MM URSULA 1945-09-11 12:00:00 TS 25.0305 119.908 main 45 0 O________OPO__ jtwc_wp WP171945 25.0000 120.000 55 0 25.0000 120.000 TC 55 25.1218 119.633 2 53 25.0000 120.000 55 995 300 10 321
1945250N12128 1945 57 WP MM URSULA 1945-09-11 15:00:00 TS 25.4499 119.494 main 0 0 P________PPP__ WP171945 25.4853 119.578 57 0 25.4853 119.578 TC 57 25.3438 119.240 2 52 25.4853 119.578 57 996 300 11 321
1945250N12128 1945 57 WP MM URSULA 1945-09-11 18:00:00 TS 25.9109 119.119 main 0 0 O________OPO__ jtwc_wp WP171945 26.0000 119.200 60 0 26.0000 119.200 TC 60 25.6437 118.877 2 51 26.0000 119.200 60 997 300 10 330
1945250N12128 1945 57 WP MM URSULA 1945-09-11 21:00:00 TS 26.3436 118.913 main 0 0 P________POP__ WP171945 26.4248 119.018 57 0 26.4248 119.018 TC 57 26.1000 118.600 2 50 26.4248 119.018 57 998 270 11 347
1945250N12128 1945 57 WP MM URSULA 1945-09-12 00:00:00 TS 26.9613 118.847 main 0 0 O________OPO__ jtwc_wp WP171945 27.0000 119.000 55 0 27.0000 119.000 TC 55 26.8450 118.388 2 27.0000 119.000 55 999 240 15 358
1945250N12128 1945 57 WP MM URSULA 1945-09-12 03:00:00 TS 27.8795 118.882 main 0 0 P________PPP__ WP171945 27.9250 119.083 55 0 27.9250 119.083 TC 55 27.7431 118.278 2 27.9250 119.083 55 1000 210 20 5
1945250N12128 1945 57 WP MM URSULA 1945-09-12 06:00:00 TS 28.9186 119.034 main 0 0 O________OPO__ jtwc_wp WP171945 29.0000 119.300 55 0 29.0000 119.300 TC 55 28.6947 118.304 2 29.0000 119.300 55 1001 180 21 8
1945250N12128 1945 57 WP MM URSULA 1945-09-12 09:00:00 TS 29.9096 119.225 main 0 0 P________POP__ WP171945 30.0355 119.488 52 0 30.0355 119.488 TC 52 29.6000 118.500 2 30.0252 119.621 52 1002 180 19 15
1945250N12128 1945 57 WP MM URSULA 1945-09-12 12:00:00 TS 30.7830 119.606 main 0 0 O________OPO__ jtwc_wp WP171945 31.0000 120.000 50 0 31.0000 120.000 TC 50 30.2946 118.720 2 31.0000 120.000 50 1003 180 19 34
1945250N12128 1945 57 WP MM URSULA 1945-09-12 15:00:00 TS 31.4782 120.455 main 0 0 P________PP___ WP171945 31.7518 121.116 50 0 31.7518 121.116 TC 50 30.9310 119.134 2 22 51
1945250N12128 1945 57 WP MM URSULA 1945-09-12 18:00:00 TS 32.1842 121.601 main 18 18 O________OP___ jtwc_wp WP171945 32.5000 122.500 50 0 32.5000 122.500 TC 50 31.5525 119.804 2 25 51
1945250N12128 1945 57 WP MM URSULA 1945-09-12 21:00:00 TS 33.0665 122.791 main 152 152 P________PO___ WP171945 33.4998 123.786 47 0 33.4998 123.786 TC 47 32.2000 120.800 2 27 49
1945250N12128 1945 57 WP MM URSULA 1945-09-13 00:00:00 TS 33.9749 124.079 main 209 91 O________OP___ jtwc_wp WP171945 34.5000 125.000 45 0 34.5000 125.000 TC 45 32.9246 122.237 2 27 51
1945250N12128 1945 57 WP MM URSULA 1945-09-13 03:00:00 TS 34.7585 125.336 main 88 0 P________PP___ WP171945 35.3071 126.004 45 0 35.3071 126.004 TC 45 33.6613 123.998 2 26 55
1945250N12128 1945 57 WP MM URSULA 1945-09-13 06:00:00 TS 35.4633 126.637 main 9 0 O________OP___ jtwc_wp WP171945 36.0000 127.000 45 0 36.0000 127.000 TC 45 34.3899 125.912 2 26 58
1945250N12128 1945 57 WP MM URSULA 1945-09-13 09:00:00 TS 36.1081 128.028 main 0 0 P________PO___ WP171945 36.6122 128.142 42 0 36.6122 128.142 TC 42 35.1000 127.800 2 26 61
1945250N12128 1945 57 WP MM URSULA 1945-09-13 12:00:00 TS 36.7186 129.476 main 0 0 O________OP___ jtwc_wp WP171945 37.2000 129.500 40 0 37.2000 129.500 TC 40 35.7558 129.429 2 28 63
1945250N12128 1945 57 WP MM URSULA 1945-09-13 15:00:00 TS 37.3448 131.117 main 151 151 P________PP___ WP171945 37.8131 131.178 37 0 37.8131 131.178 TC 37 36.4084 130.994 2 30 64
1945250N12128 1945 57 WP MM URSULA 1945-09-13 18:00:00 TS 38.0273 132.837 main 278 261 O________OP___ jtwc_wp WP171945 38.5000 133.000 35 0 38.5000 133.000 TC 35 37.0820 132.511 2 30 61
1945250N12128 1945 57 WP MM URSULA 1945-09-13 21:00:00 TS 38.8067 134.502 main 254 235 P________PO___ WP171945 39.3100 134.753 35 0 39.3100 134.753 TC 35 37.8000 134.000 2 30 58
1945250N12128 1945 57 WP MM URSULA 1945-09-14 00:00:00 TS 39.6228 136.098 main 252 191 O________OP___ jtwc_wp WP171945 40.2000 136.500 35 0 40.2000 136.500 TC 35 38.7570 135.496 2 29 56
1945250N12128 1945 57 WP MM URSULA 1945-09-14 03:00:00 TS 40.4189 137.613 main 186 94 P________PP___ WP171945 41.1051 138.241 32 -1 41.1051 138.241 TC 32 39.7326 136.986 2 26 57
1945250N12128 1945 57 WP MM URSULA 1945-09-14 06:00:00 TS 41.0448 138.991 main 87 25 O________OP___ jtwc_wp WP171945 42.0000 140.000 30 -1 42.0000 140.000 TC 30 40.5672 138.486 2 19 69
1945250N12128 1945 57 WP MM URSULA 1945-09-14 09:00:00 NR 41.1000 140.000 main 16 0 __________O___ WP171945 -1 TC 41.1000 140.000 2 19 85
1945250N12128 1945 57 WP MM URSULA 1945-09-14 12:00:00 NR 41.2157 141.514 main 8 8 __________P___ -1 41.2157 141.514 2 23 93
1945250N12128 1945 57 WP MM URSULA 1945-09-14 15:00:00 NR 40.9800 143.008 main 101 100 __________P___ -1 40.9800 143.008 2 23 108
1945250N12128 1945 57 WP MM URSULA 1945-09-14 18:00:00 NR 40.5042 144.471 main 189 189 __________P___ -1 40.5042 144.471 2 24 116
1945250N12128 1945 57 WP MM URSULA 1945-09-14 21:00:00 NR 39.9000 145.900 main 317 __________O___ -1 39.9000 145.900 2 25 119

Digital Typhoon Data and Search

About IBTrACS Database

This database is a web-friendly format of International Best Track Archive for Climate Stewardship (IBTrACS), a global best track data archive curated by NOAA dating back to 1842.

Updated: 2021-11-26